<?xml version="1.0" encoding="UTF-8" standalone="no" ?>
<gpx xmlns="http://www.topografix.com/GPX/1/1" xmlns:xsi="http://www.w3.org/2001/XMLSchema-instance" xsi:schemaLocation="http://www.topografix.com/GPX/1/1 http://www.topografix.com/GPX/1/1/gpx.xsd" version="1.1" creator="VisuGPX - https://www.visugpx.com">
  <metadata>
    <name>Matachare - Berthaud- la Roche</name>
    <desc><![CDATA[Le passage après la cabane pastorale de "la Grangette" n'est pas facile à trouver = suivre le bord du champ en face de la cabane. Juste avant le torrent de la Grangette prendre un passage pas très visible en ouvrant (et en refermant) une clôture en barbelé.
Passage par "la Barre" = impressionnant mais pas dangereux = à faire à pied.]]></desc>
  </metadata>
  <trk>
    <name><![CDATA[OR-7491356--Roche-des-Arnauds (La):J2 Matachare La Roche Par Berthaud et la Barre]]></name>
    <trkseg>
      <trkpt lat="44.58574" lon="5.93461">
        <ele>1310</ele>
        <time>2017-09-09T11:58:26Z</time>
      </trkpt>
      <trkpt lat="44.58627" lon="5.93528">
        <ele>1322</ele>
        <time>2017-09-09T12:00:26Z</time>
      </trkpt>
      <trkpt lat="44.58579" lon="5.93591">
        <ele>1343</ele>
        <time>2017-09-09T12:02:26Z</time>
      </trkpt>
      <trkpt lat="44.58548" lon="5.9363">
        <ele>1358</ele>
        <time>2017-09-09T12:04:26Z</time>
      </trkpt>
      <trkpt lat="44.5857" lon="5.93657">
        <ele>1361</ele>
        <time>2017-09-09T12:06:26Z</time>
      </trkpt>
      <trkpt lat="44.58629" lon="5.93696">
        <ele>1367</ele>
        <time>2017-09-09T12:08:26Z</time>
      </trkpt>
      <trkpt lat="44.58697" lon="5.93729">
        <ele>1367</ele>
        <time>2017-09-09T12:10:26Z</time>
      </trkpt>
      <trkpt lat="44.58736" lon="5.93758">
        <ele>1371</ele>
        <time>2017-09-09T12:12:26Z</time>
      </trkpt>
      <trkpt lat="44.58769" lon="5.93795">
        <ele>1382</ele>
        <time>2017-09-09T12:14:26Z</time>
      </trkpt>
      <trkpt lat="44.58817" lon="5.93793">
        <ele>1371</ele>
        <time>2017-09-09T12:16:26Z</time>
      </trkpt>
      <trkpt lat="44.58863" lon="5.93876">
        <ele>1387</ele>
        <time>2017-09-09T12:18:26Z</time>
      </trkpt>
      <trkpt lat="44.589" lon="5.93972">
        <ele>1398</ele>
        <time>2017-09-09T12:20:26Z</time>
      </trkpt>
      <trkpt lat="44.5892" lon="5.94045">
        <ele>1404</ele>
        <time>2017-09-09T12:22:26Z</time>
      </trkpt>
      <trkpt lat="44.58984" lon="5.94111">
        <ele>1399</ele>
        <time>2017-09-09T12:24:26Z</time>
      </trkpt>
      <trkpt lat="44.59051" lon="5.94172">
        <ele>1397</ele>
        <time>2017-09-09T12:26:26Z</time>
      </trkpt>
      <trkpt lat="44.59066" lon="5.94165">
        <ele>1390</ele>
        <time>2017-09-09T12:28:26Z</time>
      </trkpt>
      <trkpt lat="44.59131" lon="5.94203">
        <ele>1395</ele>
        <time>2017-09-09T12:30:26Z</time>
      </trkpt>
      <trkpt lat="44.59213" lon="5.94263">
        <ele>1419</ele>
        <time>2017-09-09T12:32:26Z</time>
      </trkpt>
      <trkpt lat="44.59308" lon="5.94289">
        <ele>1435</ele>
        <time>2017-09-09T12:34:26Z</time>
      </trkpt>
      <trkpt lat="44.59414" lon="5.94316">
        <ele>1444</ele>
        <time>2017-09-09T12:36:26Z</time>
      </trkpt>
      <trkpt lat="44.59473" lon="5.94334">
        <ele>1446</ele>
        <time>2017-09-09T12:38:26Z</time>
      </trkpt>
      <trkpt lat="44.5953" lon="5.94379">
        <ele>1457</ele>
        <time>2017-09-09T12:40:26Z</time>
      </trkpt>
      <trkpt lat="44.59612" lon="5.94477">
        <ele>1486</ele>
        <time>2017-09-09T12:42:26Z</time>
      </trkpt>
      <trkpt lat="44.59655" lon="5.94559">
        <ele>1506</ele>
        <time>2017-09-09T12:44:26Z</time>
      </trkpt>
      <trkpt lat="44.59667" lon="5.9464">
        <ele>1526</ele>
        <time>2017-09-09T12:46:26Z</time>
      </trkpt>
      <trkpt lat="44.59678" lon="5.94703">
        <ele>1549</ele>
        <time>2017-09-09T12:48:26Z</time>
      </trkpt>
      <trkpt lat="44.5958" lon="5.94709">
        <ele>1556</ele>
        <time>2017-09-09T12:50:26Z</time>
      </trkpt>
      <trkpt lat="44.59571" lon="5.94756">
        <ele>1573</ele>
        <time>2017-09-09T12:52:26Z</time>
      </trkpt>
      <trkpt lat="44.59508" lon="5.94739">
        <ele>1585</ele>
        <time>2017-09-09T12:54:26Z</time>
      </trkpt>
      <trkpt lat="44.59559" lon="5.94804">
        <ele>1594</ele>
        <time>2017-09-09T12:56:26Z</time>
      </trkpt>
      <trkpt lat="44.59571" lon="5.9487">
        <ele>1615</ele>
        <time>2017-09-09T12:58:26Z</time>
      </trkpt>
      <trkpt lat="44.59626" lon="5.94844">
        <ele>1604</ele>
        <time>2017-09-09T13:00:26Z</time>
      </trkpt>
      <trkpt lat="44.59653" lon="5.94885">
        <ele>1618</ele>
        <time>2017-09-09T13:02:26Z</time>
      </trkpt>
      <trkpt lat="44.59661" lon="5.94892">
        <ele>1620</ele>
        <time>2017-09-09T13:04:26Z</time>
      </trkpt>
      <trkpt lat="44.59748" lon="5.94892">
        <ele>1624</ele>
        <time>2017-09-09T13:06:26Z</time>
      </trkpt>
      <trkpt lat="44.59806" lon="5.9493">
        <ele>1643</ele>
        <time>2017-09-09T13:08:26Z</time>
      </trkpt>
      <trkpt lat="44.59895" lon="5.94898">
        <ele>1653</ele>
        <time>2017-09-09T13:10:26Z</time>
      </trkpt>
      <trkpt lat="44.59951" lon="5.94857">
        <ele>1656</ele>
        <time>2017-09-09T13:12:26Z</time>
      </trkpt>
      <trkpt lat="44.59993" lon="5.94877">
        <ele>1674</ele>
        <time>2017-09-09T13:14:26Z</time>
      </trkpt>
      <trkpt lat="44.60063" lon="5.94842">
        <ele>1673</ele>
        <time>2017-09-09T13:16:26Z</time>
      </trkpt>
      <trkpt lat="44.60139" lon="5.94877">
        <ele>1687</ele>
        <time>2017-09-09T13:18:26Z</time>
      </trkpt>
      <trkpt lat="44.60199" lon="5.94962">
        <ele>1712</ele>
        <time>2017-09-09T13:20:26Z</time>
      </trkpt>
      <trkpt lat="44.6026" lon="5.94917">
        <ele>1705</ele>
        <time>2017-09-09T13:22:26Z</time>
      </trkpt>
      <trkpt lat="44.60313" lon="5.94926">
        <ele>1714</ele>
        <time>2017-09-09T13:24:26Z</time>
      </trkpt>
      <trkpt lat="44.60269" lon="5.9496">
        <ele>1720</ele>
        <time>2017-09-09T13:26:26Z</time>
      </trkpt>
      <trkpt lat="44.60242" lon="5.95025">
        <ele>1736</ele>
        <time>2017-09-09T13:28:26Z</time>
      </trkpt>
      <trkpt lat="44.60324" lon="5.95003">
        <ele>1745</ele>
        <time>2017-09-09T13:30:26Z</time>
      </trkpt>
      <trkpt lat="44.6041" lon="5.9505">
        <ele>1766</ele>
        <time>2017-09-09T13:32:26Z</time>
      </trkpt>
      <trkpt lat="44.60459" lon="5.9508">
        <ele>1777</ele>
        <time>2017-09-09T13:34:26Z</time>
      </trkpt>
      <trkpt lat="44.60497" lon="5.95061">
        <ele>1772</ele>
        <time>2017-09-09T13:36:26Z</time>
      </trkpt>
      <trkpt lat="44.60596" lon="5.95061">
        <ele>1786</ele>
        <time>2017-09-09T13:38:26Z</time>
      </trkpt>
      <trkpt lat="44.60654" lon="5.95106">
        <ele>1793</ele>
        <time>2017-09-09T13:40:26Z</time>
      </trkpt>
      <trkpt lat="44.60695" lon="5.95119">
        <ele>1790</ele>
        <time>2017-09-09T13:42:26Z</time>
      </trkpt>
      <trkpt lat="44.60721" lon="5.9514">
        <ele>1785</ele>
        <time>2017-09-09T13:44:26Z</time>
      </trkpt>
      <trkpt lat="44.60796" lon="5.95153">
        <ele>1772</ele>
        <time>2017-09-09T13:46:26Z</time>
      </trkpt>
      <trkpt lat="44.60883" lon="5.95211">
        <ele>1743</ele>
        <time>2017-09-09T13:48:26Z</time>
      </trkpt>
      <trkpt lat="44.6095" lon="5.95261">
        <ele>1725</ele>
        <time>2017-09-09T13:50:26Z</time>
      </trkpt>
      <trkpt lat="44.6091" lon="5.95117">
        <ele>1734</ele>
        <time>2017-09-09T13:52:26Z</time>
      </trkpt>
      <trkpt lat="44.60902" lon="5.95055">
        <ele>1739</ele>
        <time>2017-09-09T13:54:26Z</time>
      </trkpt>
      <trkpt lat="44.60959" lon="5.95007">
        <ele>1722</ele>
        <time>2017-09-09T13:56:26Z</time>
      </trkpt>
      <trkpt lat="44.60991" lon="5.94973">
        <ele>1719</ele>
        <time>2017-09-09T13:58:26Z</time>
      </trkpt>
      <trkpt lat="44.61112" lon="5.9501">
        <ele>1681</ele>
        <time>2017-09-09T14:00:26Z</time>
      </trkpt>
      <trkpt lat="44.61162" lon="5.94849">
        <ele>1686</ele>
        <time>2017-09-09T14:02:26Z</time>
      </trkpt>
      <trkpt lat="44.61203" lon="5.94791">
        <ele>1701</ele>
        <time>2017-09-09T14:04:26Z</time>
      </trkpt>
      <trkpt lat="44.61221" lon="5.94992">
        <ele>1656</ele>
        <time>2017-09-09T14:06:26Z</time>
      </trkpt>
      <trkpt lat="44.61276" lon="5.95031">
        <ele>1645</ele>
        <time>2017-09-09T14:08:26Z</time>
      </trkpt>
      <trkpt lat="44.61365" lon="5.95117">
        <ele>1626</ele>
        <time>2017-09-09T14:10:26Z</time>
      </trkpt>
      <trkpt lat="44.61478" lon="5.95162">
        <ele>1613</ele>
        <time>2017-09-09T14:12:26Z</time>
      </trkpt>
      <trkpt lat="44.61527" lon="5.95183">
        <ele>1608</ele>
        <time>2017-09-09T14:14:26Z</time>
      </trkpt>
      <trkpt lat="44.6157" lon="5.95185">
        <ele>1613</ele>
        <time>2017-09-09T14:16:26Z</time>
      </trkpt>
      <trkpt lat="44.61554" lon="5.95293">
        <ele>1576</ele>
        <time>2017-09-09T14:18:26Z</time>
      </trkpt>
      <trkpt lat="44.61587" lon="5.95383">
        <ele>1570</ele>
        <time>2017-09-09T14:20:26Z</time>
      </trkpt>
      <trkpt lat="44.61585" lon="5.9543">
        <ele>1560</ele>
        <time>2017-09-09T14:22:26Z</time>
      </trkpt>
      <trkpt lat="44.61613" lon="5.95591">
        <ele>1545</ele>
        <time>2017-09-09T14:24:26Z</time>
      </trkpt>
      <trkpt lat="44.61583" lon="5.95748">
        <ele>1521</ele>
        <time>2017-09-09T14:26:26Z</time>
      </trkpt>
      <trkpt lat="44.61548" lon="5.95853">
        <ele>1504</ele>
        <time>2017-09-09T14:28:26Z</time>
      </trkpt>
      <trkpt lat="44.61542" lon="5.95688">
        <ele>1502</ele>
        <time>2017-09-09T14:30:26Z</time>
      </trkpt>
      <trkpt lat="44.61493" lon="5.95597">
        <ele>1490</ele>
        <time>2017-09-09T14:32:26Z</time>
      </trkpt>
      <trkpt lat="44.61477" lon="5.95728">
        <ele>1476</ele>
        <time>2017-09-09T14:34:26Z</time>
      </trkpt>
      <trkpt lat="44.61449" lon="5.95801">
        <ele>1466</ele>
        <time>2017-09-09T14:36:26Z</time>
      </trkpt>
      <trkpt lat="44.61444" lon="5.95937">
        <ele>1464</ele>
        <time>2017-09-09T14:38:26Z</time>
      </trkpt>
      <trkpt lat="44.61452" lon="5.96067">
        <ele>1454</ele>
        <time>2017-09-09T14:40:26Z</time>
      </trkpt>
      <trkpt lat="44.6148" lon="5.96143">
        <ele>1450</ele>
        <time>2017-09-09T14:42:26Z</time>
      </trkpt>
      <trkpt lat="44.61532" lon="5.96087">
        <ele>1474</ele>
        <time>2017-09-09T14:44:26Z</time>
      </trkpt>
      <trkpt lat="44.6153" lon="5.96162">
        <ele>1462</ele>
        <time>2017-09-09T14:46:26Z</time>
      </trkpt>
      <trkpt lat="44.61578" lon="5.96262">
        <ele>1459</ele>
        <time>2017-09-09T14:48:26Z</time>
      </trkpt>
      <trkpt lat="44.61567" lon="5.96287">
        <ele>1452</ele>
        <time>2017-09-09T14:50:26Z</time>
      </trkpt>
      <trkpt lat="44.6158" lon="5.96347">
        <ele>1449</ele>
        <time>2017-09-09T14:52:26Z</time>
      </trkpt>
      <trkpt lat="44.61575" lon="5.96445">
        <ele>1443</ele>
        <time>2017-09-09T14:54:26Z</time>
      </trkpt>
      <trkpt lat="44.61572" lon="5.96501">
        <ele>1441</ele>
        <time>2017-09-09T14:56:26Z</time>
      </trkpt>
      <trkpt lat="44.61545" lon="5.96553">
        <ele>1425</ele>
        <time>2017-09-09T14:58:26Z</time>
      </trkpt>
      <trkpt lat="44.61564" lon="5.96641">
        <ele>1434</ele>
        <time>2017-09-09T15:00:26Z</time>
      </trkpt>
      <trkpt lat="44.61546" lon="5.96729">
        <ele>1426</ele>
        <time>2017-09-09T15:02:26Z</time>
      </trkpt>
      <trkpt lat="44.61523" lon="5.96758">
        <ele>1414</ele>
        <time>2017-09-09T15:04:26Z</time>
      </trkpt>
      <trkpt lat="44.6155" lon="5.96849">
        <ele>1423</ele>
        <time>2017-09-09T15:06:26Z</time>
      </trkpt>
      <trkpt lat="44.61538" lon="5.96938">
        <ele>1410</ele>
        <time>2017-09-09T15:08:26Z</time>
      </trkpt>
      <trkpt lat="44.61525" lon="5.96977">
        <ele>1403</ele>
        <time>2017-09-09T15:10:26Z</time>
      </trkpt>
      <trkpt lat="44.61527" lon="5.97009">
        <ele>1405</ele>
        <time>2017-09-09T15:12:26Z</time>
      </trkpt>
      <trkpt lat="44.615" lon="5.97084">
        <ele>1395</ele>
        <time>2017-09-09T15:14:26Z</time>
      </trkpt>
      <trkpt lat="44.61489" lon="5.97126">
        <ele>1389</ele>
        <time>2017-09-09T15:16:26Z</time>
      </trkpt>
      <trkpt lat="44.61493" lon="5.97197">
        <ele>1389</ele>
        <time>2017-09-09T15:18:26Z</time>
      </trkpt>
      <trkpt lat="44.61543" lon="5.97283">
        <ele>1386</ele>
        <time>2017-09-09T15:20:26Z</time>
      </trkpt>
      <trkpt lat="44.61565" lon="5.9732">
        <ele>1382</ele>
        <time>2017-09-09T15:22:26Z</time>
      </trkpt>
      <trkpt lat="44.61627" lon="5.97237">
        <ele>1380</ele>
        <time>2017-09-09T15:24:26Z</time>
      </trkpt>
      <trkpt lat="44.61664" lon="5.97167">
        <ele>1382</ele>
        <time>2017-09-09T15:26:26Z</time>
      </trkpt>
      <trkpt lat="44.61744" lon="5.97036">
        <ele>1374</ele>
        <time>2017-09-09T15:28:26Z</time>
      </trkpt>
      <trkpt lat="44.61782" lon="5.97003">
        <ele>1370</ele>
        <time>2017-09-09T15:30:26Z</time>
      </trkpt>
      <trkpt lat="44.61845" lon="5.96942">
        <ele>1368</ele>
        <time>2017-09-09T15:32:26Z</time>
      </trkpt>
      <trkpt lat="44.61898" lon="5.96911">
        <ele>1363</ele>
        <time>2017-09-09T15:34:26Z</time>
      </trkpt>
      <trkpt lat="44.61918" lon="5.96915">
        <ele>1357</ele>
        <time>2017-09-09T15:36:26Z</time>
      </trkpt>
      <trkpt lat="44.61871" lon="5.96977">
        <ele>1350</ele>
        <time>2017-09-09T15:38:26Z</time>
      </trkpt>
      <trkpt lat="44.61841" lon="5.97038">
        <ele>1340</ele>
        <time>2017-09-09T15:40:26Z</time>
      </trkpt>
      <trkpt lat="44.61936" lon="5.96986">
        <ele>1331</ele>
        <time>2017-09-09T15:42:26Z</time>
      </trkpt>
      <trkpt lat="44.61897" lon="5.97102">
        <ele>1311</ele>
        <time>2017-09-09T15:44:26Z</time>
      </trkpt>
      <trkpt lat="44.61943" lon="5.96982">
        <ele>1331</ele>
        <time>2017-09-09T15:46:26Z</time>
      </trkpt>
      <trkpt lat="44.61831" lon="5.97044">
        <ele>1341</ele>
        <time>2017-09-09T15:48:26Z</time>
      </trkpt>
      <trkpt lat="44.61924" lon="5.96905">
        <ele>1359</ele>
        <time>2017-09-09T15:50:26Z</time>
      </trkpt>
      <trkpt lat="44.61885" lon="5.9691">
        <ele>1367</ele>
        <time>2017-09-09T15:52:26Z</time>
      </trkpt>
      <trkpt lat="44.61814" lon="5.96964">
        <ele>1370</ele>
        <time>2017-09-09T15:54:26Z</time>
      </trkpt>
      <trkpt lat="44.61753" lon="5.97018">
        <ele>1375</ele>
        <time>2017-09-09T15:56:26Z</time>
      </trkpt>
      <trkpt lat="44.61681" lon="5.97126">
        <ele>1382</ele>
        <time>2017-09-09T15:58:26Z</time>
      </trkpt>
      <trkpt lat="44.61624" lon="5.97227">
        <ele>1383</ele>
        <time>2017-09-09T16:00:26Z</time>
      </trkpt>
      <trkpt lat="44.61566" lon="5.97302">
        <ele>1385</ele>
        <time>2017-09-09T16:02:26Z</time>
      </trkpt>
      <trkpt lat="44.61499" lon="5.97167">
        <ele>1396</ele>
        <time>2017-09-09T16:04:26Z</time>
      </trkpt>
      <trkpt lat="44.61505" lon="5.97109">
        <ele>1397</ele>
        <time>2017-09-09T16:06:26Z</time>
      </trkpt>
      <trkpt lat="44.61536" lon="5.97015">
        <ele>1411</ele>
        <time>2017-09-09T16:08:26Z</time>
      </trkpt>
      <trkpt lat="44.61536" lon="5.96971">
        <ele>1410</ele>
        <time>2017-09-09T16:10:26Z</time>
      </trkpt>
      <trkpt lat="44.6156" lon="5.96839">
        <ele>1430</ele>
        <time>2017-09-09T16:12:26Z</time>
      </trkpt>
      <trkpt lat="44.61533" lon="5.96763">
        <ele>1419</ele>
        <time>2017-09-09T16:14:26Z</time>
      </trkpt>
      <trkpt lat="44.61559" lon="5.96723">
        <ele>1433</ele>
        <time>2017-09-09T16:16:26Z</time>
      </trkpt>
      <trkpt lat="44.61572" lon="5.96644">
        <ele>1439</ele>
        <time>2017-09-09T16:18:26Z</time>
      </trkpt>
      <trkpt lat="44.61558" lon="5.9655">
        <ele>1433</ele>
        <time>2017-09-09T16:20:26Z</time>
      </trkpt>
      <trkpt lat="44.61586" lon="5.96503">
        <ele>1450</ele>
        <time>2017-09-09T16:22:26Z</time>
      </trkpt>
      <trkpt lat="44.61592" lon="5.96356">
        <ele>1456</ele>
        <time>2017-09-09T16:24:26Z</time>
      </trkpt>
      <trkpt lat="44.61577" lon="5.96291">
        <ele>1455</ele>
        <time>2017-09-09T16:26:26Z</time>
      </trkpt>
      <trkpt lat="44.61591" lon="5.96259">
        <ele>1466</ele>
        <time>2017-09-09T16:28:26Z</time>
      </trkpt>
      <trkpt lat="44.61542" lon="5.96159">
        <ele>1467</ele>
        <time>2017-09-09T16:30:26Z</time>
      </trkpt>
      <trkpt lat="44.61541" lon="5.96076">
        <ele>1478</ele>
        <time>2017-09-09T16:32:26Z</time>
      </trkpt>
      <trkpt lat="44.61483" lon="5.96122">
        <ele>1454</ele>
        <time>2017-09-09T16:34:26Z</time>
      </trkpt>
      <trkpt lat="44.61463" lon="5.96069">
        <ele>1457</ele>
        <time>2017-09-09T16:36:26Z</time>
      </trkpt>
      <trkpt lat="44.61454" lon="5.95948">
        <ele>1467</ele>
        <time>2017-09-09T16:38:26Z</time>
      </trkpt>
      <trkpt lat="44.61405" lon="5.95843">
        <ele>1451</ele>
        <time>2017-09-09T16:40:26Z</time>
      </trkpt>
      <trkpt lat="44.61408" lon="5.95793">
        <ele>1454</ele>
        <time>2017-09-09T16:42:26Z</time>
      </trkpt>
      <trkpt lat="44.61419" lon="5.9574">
        <ele>1459</ele>
        <time>2017-09-09T16:44:26Z</time>
      </trkpt>
      <trkpt lat="44.6135" lon="5.95767">
        <ele>1450</ele>
        <time>2017-09-09T16:46:26Z</time>
      </trkpt>
      <trkpt lat="44.61336" lon="5.95746">
        <ele>1452</ele>
        <time>2017-09-09T16:48:26Z</time>
      </trkpt>
      <trkpt lat="44.61332" lon="5.95678">
        <ele>1467</ele>
        <time>2017-09-09T16:50:26Z</time>
      </trkpt>
      <trkpt lat="44.61314" lon="5.95693">
        <ele>1469</ele>
        <time>2017-09-09T16:52:26Z</time>
      </trkpt>
      <trkpt lat="44.61309" lon="5.95731">
        <ele>1461</ele>
        <time>2017-09-09T16:54:26Z</time>
      </trkpt>
      <trkpt lat="44.61297" lon="5.95771">
        <ele>1455</ele>
        <time>2017-09-09T16:56:26Z</time>
      </trkpt>
      <trkpt lat="44.61251" lon="5.95799">
        <ele>1458</ele>
        <time>2017-09-09T16:58:26Z</time>
      </trkpt>
      <trkpt lat="44.61226" lon="5.95814">
        <ele>1459</ele>
        <time>2017-09-09T17:00:26Z</time>
      </trkpt>
      <trkpt lat="44.61187" lon="5.95817">
        <ele>1463</ele>
        <time>2017-09-09T17:02:26Z</time>
      </trkpt>
      <trkpt lat="44.61142" lon="5.95836">
        <ele>1467</ele>
        <time>2017-09-09T17:04:26Z</time>
      </trkpt>
      <trkpt lat="44.61086" lon="5.95868">
        <ele>1474</ele>
        <time>2017-09-09T17:06:26Z</time>
      </trkpt>
      <trkpt lat="44.61059" lon="5.95863">
        <ele>1487</ele>
        <time>2017-09-09T17:08:26Z</time>
      </trkpt>
      <trkpt lat="44.61054" lon="5.95899">
        <ele>1479</ele>
        <time>2017-09-09T17:10:26Z</time>
      </trkpt>
      <trkpt lat="44.61015" lon="5.95947">
        <ele>1480</ele>
        <time>2017-09-09T17:12:26Z</time>
      </trkpt>
      <trkpt lat="44.60934" lon="5.96018">
        <ele>1493</ele>
        <time>2017-09-09T17:14:26Z</time>
      </trkpt>
      <trkpt lat="44.60837" lon="5.9611">
        <ele>1511</ele>
        <time>2017-09-09T17:16:26Z</time>
      </trkpt>
      <trkpt lat="44.60768" lon="5.96149">
        <ele>1526</ele>
        <time>2017-09-09T17:18:26Z</time>
      </trkpt>
      <trkpt lat="44.60717" lon="5.96206">
        <ele>1535</ele>
        <time>2017-09-09T17:20:26Z</time>
      </trkpt>
      <trkpt lat="44.60711" lon="5.96248">
        <ele>1532</ele>
        <time>2017-09-09T17:22:26Z</time>
      </trkpt>
      <trkpt lat="44.60626" lon="5.96334">
        <ele>1552</ele>
        <time>2017-09-09T17:24:26Z</time>
      </trkpt>
      <trkpt lat="44.60588" lon="5.96338">
        <ele>1564</ele>
        <time>2017-09-09T17:26:26Z</time>
      </trkpt>
      <trkpt lat="44.60518" lon="5.96402">
        <ele>1579</ele>
        <time>2017-09-09T17:28:26Z</time>
      </trkpt>
      <trkpt lat="44.60466" lon="5.96415">
        <ele>1598</ele>
        <time>2017-09-09T17:30:26Z</time>
      </trkpt>
      <trkpt lat="44.60449" lon="5.96503">
        <ele>1591</ele>
        <time>2017-09-09T17:32:26Z</time>
      </trkpt>
      <trkpt lat="44.60361" lon="5.96589">
        <ele>1618</ele>
        <time>2017-09-09T17:34:26Z</time>
      </trkpt>
      <trkpt lat="44.60384" lon="5.96735">
        <ele>1613</ele>
        <time>2017-09-09T17:36:26Z</time>
      </trkpt>
      <trkpt lat="44.60394" lon="5.96833">
        <ele>1619</ele>
        <time>2017-09-09T17:38:26Z</time>
      </trkpt>
      <trkpt lat="44.60399" lon="5.9699">
        <ele>1623</ele>
        <time>2017-09-09T17:40:26Z</time>
      </trkpt>
      <trkpt lat="44.6044" lon="5.97061">
        <ele>1611</ele>
        <time>2017-09-09T17:42:26Z</time>
      </trkpt>
      <trkpt lat="44.6048" lon="5.97355">
        <ele>1636</ele>
        <time>2017-09-09T17:44:26Z</time>
      </trkpt>
      <trkpt lat="44.60448" lon="5.9749">
        <ele>1650</ele>
        <time>2017-09-09T17:46:26Z</time>
      </trkpt>
      <trkpt lat="44.60355" lon="5.97737">
        <ele>1664</ele>
        <time>2017-09-09T17:48:26Z</time>
      </trkpt>
      <trkpt lat="44.60287" lon="5.97814">
        <ele>1681</ele>
        <time>2017-09-09T17:50:26Z</time>
      </trkpt>
      <trkpt lat="44.60226" lon="5.97973">
        <ele>1679</ele>
        <time>2017-09-09T17:52:26Z</time>
      </trkpt>
      <trkpt lat="44.60139" lon="5.98177">
        <ele>1684</ele>
        <time>2017-09-09T17:54:26Z</time>
      </trkpt>
      <trkpt lat="44.60106" lon="5.9829">
        <ele>1681</ele>
        <time>2017-09-09T17:56:26Z</time>
      </trkpt>
      <trkpt lat="44.59996" lon="5.98348">
        <ele>1687</ele>
        <time>2017-09-09T17:58:26Z</time>
      </trkpt>
      <trkpt lat="44.59906" lon="5.9837">
        <ele>1690</ele>
        <time>2017-09-09T18:00:26Z</time>
      </trkpt>
      <trkpt lat="44.5982" lon="5.98372">
        <ele>1696</ele>
        <time>2017-09-09T18:02:26Z</time>
      </trkpt>
      <trkpt lat="44.59707" lon="5.98381">
        <ele>1702</ele>
        <time>2017-09-09T18:04:26Z</time>
      </trkpt>
      <trkpt lat="44.59619" lon="5.98361">
        <ele>1714</ele>
        <time>2017-09-09T18:06:26Z</time>
      </trkpt>
      <trkpt lat="44.59531" lon="5.98331">
        <ele>1737</ele>
        <time>2017-09-09T18:08:26Z</time>
      </trkpt>
      <trkpt lat="44.5944" lon="5.98411">
        <ele>1714</ele>
        <time>2017-09-09T18:10:26Z</time>
      </trkpt>
      <trkpt lat="44.59304" lon="5.98569">
        <ele>1679</ele>
        <time>2017-09-09T18:12:26Z</time>
      </trkpt>
      <trkpt lat="44.59172" lon="5.98752">
        <ele>1637</ele>
        <time>2017-09-09T18:14:26Z</time>
      </trkpt>
      <trkpt lat="44.59084" lon="5.98823">
        <ele>1610</ele>
        <time>2017-09-09T18:16:26Z</time>
      </trkpt>
      <trkpt lat="44.59098" lon="5.98717">
        <ele>1607</ele>
        <time>2017-09-09T18:18:26Z</time>
      </trkpt>
      <trkpt lat="44.59067" lon="5.9873">
        <ele>1592</ele>
        <time>2017-09-09T18:20:26Z</time>
      </trkpt>
      <trkpt lat="44.59119" lon="5.98449">
        <ele>1560</ele>
        <time>2017-09-09T18:22:26Z</time>
      </trkpt>
      <trkpt lat="44.59183" lon="5.98018">
        <ele>1505</ele>
        <time>2017-09-09T18:24:26Z</time>
      </trkpt>
      <trkpt lat="44.59203" lon="5.97816">
        <ele>1480</ele>
        <time>2017-09-09T18:26:26Z</time>
      </trkpt>
      <trkpt lat="44.59188" lon="5.97702">
        <ele>1470</ele>
        <time>2017-09-09T18:28:26Z</time>
      </trkpt>
      <trkpt lat="44.59191" lon="5.9767">
        <ele>1472</ele>
        <time>2017-09-09T18:30:26Z</time>
      </trkpt>
      <trkpt lat="44.59151" lon="5.97614">
        <ele>1458</ele>
        <time>2017-09-09T18:32:26Z</time>
      </trkpt>
      <trkpt lat="44.59124" lon="5.97567">
        <ele>1451</ele>
        <time>2017-09-09T18:34:26Z</time>
      </trkpt>
      <trkpt lat="44.5905" lon="5.97492">
        <ele>1434</ele>
        <time>2017-09-09T18:36:26Z</time>
      </trkpt>
      <trkpt lat="44.59021" lon="5.97569">
        <ele>1414</ele>
        <time>2017-09-09T18:38:26Z</time>
      </trkpt>
      <trkpt lat="44.58977" lon="5.97625">
        <ele>1395</ele>
        <time>2017-09-09T18:40:26Z</time>
      </trkpt>
      <trkpt lat="44.5889" lon="5.97647">
        <ele>1366</ele>
        <time>2017-09-09T18:42:26Z</time>
      </trkpt>
      <trkpt lat="44.58789" lon="5.97687">
        <ele>1330</ele>
        <time>2017-09-09T18:44:26Z</time>
      </trkpt>
      <trkpt lat="44.58709" lon="5.97737">
        <ele>1308</ele>
        <time>2017-09-09T18:46:26Z</time>
      </trkpt>
      <trkpt lat="44.58589" lon="5.97765">
        <ele>1279</ele>
        <time>2017-09-09T18:48:26Z</time>
      </trkpt>
      <trkpt lat="44.58566" lon="5.97788">
        <ele>1274</ele>
        <time>2017-09-09T18:50:26Z</time>
      </trkpt>
      <trkpt lat="44.585" lon="5.97795">
        <ele>1261</ele>
        <time>2017-09-09T18:52:26Z</time>
      </trkpt>
      <trkpt lat="44.58479" lon="5.97765">
        <ele>1257</ele>
        <time>2017-09-09T18:54:26Z</time>
      </trkpt>
      <trkpt lat="44.5839" lon="5.97685">
        <ele>1238</ele>
        <time>2017-09-09T18:56:26Z</time>
      </trkpt>
      <trkpt lat="44.58289" lon="5.97694">
        <ele>1214</ele>
        <time>2017-09-09T18:58:26Z</time>
      </trkpt>
      <trkpt lat="44.58094" lon="5.97717">
        <ele>1178</ele>
        <time>2017-09-09T19:00:26Z</time>
      </trkpt>
      <trkpt lat="44.58009" lon="5.97737">
        <ele>1170</ele>
        <time>2017-09-09T19:02:26Z</time>
      </trkpt>
      <trkpt lat="44.57983" lon="5.97743">
        <ele>1168</ele>
        <time>2017-09-09T19:04:26Z</time>
      </trkpt>
      <trkpt lat="44.57973" lon="5.97715">
        <ele>1167</ele>
        <time>2017-09-09T19:06:26Z</time>
      </trkpt>
      <trkpt lat="44.57939" lon="5.97763">
        <ele>1164</ele>
        <time>2017-09-09T19:08:26Z</time>
      </trkpt>
      <trkpt lat="44.57878" lon="5.97784">
        <ele>1160</ele>
        <time>2017-09-09T19:10:26Z</time>
      </trkpt>
      <trkpt lat="44.57832" lon="5.97743">
        <ele>1159</ele>
        <time>2017-09-09T19:12:26Z</time>
      </trkpt>
      <trkpt lat="44.57773" lon="5.97578">
        <ele>1157</ele>
        <time>2017-09-09T19:14:26Z</time>
      </trkpt>
      <trkpt lat="44.57734" lon="5.97393">
        <ele>1154</ele>
        <time>2017-09-09T19:16:26Z</time>
      </trkpt>
      <trkpt lat="44.57724" lon="5.97263">
        <ele>1154</ele>
        <time>2017-09-09T19:18:26Z</time>
      </trkpt>
      <trkpt lat="44.57681" lon="5.97117">
        <ele>1155</ele>
        <time>2017-09-09T19:20:26Z</time>
      </trkpt>
      <trkpt lat="44.57658" lon="5.96992">
        <ele>1156</ele>
        <time>2017-09-09T19:22:26Z</time>
      </trkpt>
      <trkpt lat="44.57569" lon="5.96902">
        <ele>1152</ele>
        <time>2017-09-09T19:24:26Z</time>
      </trkpt>
      <trkpt lat="44.57493" lon="5.96795">
        <ele>1147</ele>
        <time>2017-09-09T19:26:26Z</time>
      </trkpt>
      <trkpt lat="44.57401" lon="5.96709">
        <ele>1130</ele>
        <time>2017-09-09T19:28:26Z</time>
      </trkpt>
      <trkpt lat="44.5729" lon="5.96627">
        <ele>1103</ele>
        <time>2017-09-09T19:30:26Z</time>
      </trkpt>
      <trkpt lat="44.57209" lon="5.96574">
        <ele>1094</ele>
        <time>2017-09-09T19:32:26Z</time>
      </trkpt>
      <trkpt lat="44.57137" lon="5.96589">
        <ele>1085</ele>
        <time>2017-09-09T19:34:26Z</time>
      </trkpt>
      <trkpt lat="44.57072" lon="5.96572">
        <ele>1082</ele>
        <time>2017-09-09T19:36:26Z</time>
      </trkpt>
      <trkpt lat="44.56993" lon="5.96546">
        <ele>1070</ele>
        <time>2017-09-09T19:38:26Z</time>
      </trkpt>
      <trkpt lat="44.56929" lon="5.96531">
        <ele>1061</ele>
        <time>2017-09-09T19:40:26Z</time>
      </trkpt>
      <trkpt lat="44.56822" lon="5.96381">
        <ele>1031</ele>
        <time>2017-09-09T19:42:26Z</time>
      </trkpt>
      <trkpt lat="44.568" lon="5.96329">
        <ele>1024</ele>
        <time>2017-09-09T19:44:26Z</time>
      </trkpt>
      <trkpt lat="44.56748" lon="5.96316">
        <ele>1023</ele>
        <time>2017-09-09T19:46:26Z</time>
      </trkpt>
      <trkpt lat="44.56729" lon="5.96248">
        <ele>1012</ele>
        <time>2017-09-09T19:48:26Z</time>
      </trkpt>
      <trkpt lat="44.56675" lon="5.96203">
        <ele>1008</ele>
        <time>2017-09-09T19:50:26Z</time>
      </trkpt>
      <trkpt lat="44.56579" lon="5.96104">
        <ele>995</ele>
        <time>2017-09-09T19:52:26Z</time>
      </trkpt>
      <trkpt lat="44.56521" lon="5.95977">
        <ele>974</ele>
        <time>2017-09-09T19:54:26Z</time>
      </trkpt>
      <trkpt lat="44.56582" lon="5.96007">
        <ele>976</ele>
        <time>2017-09-09T19:56:26Z</time>
      </trkpt>
      <trkpt lat="44.56515" lon="5.95812">
        <ele>957</ele>
        <time>2017-09-09T19:58:26Z</time>
      </trkpt>
      <trkpt lat="44.56496" lon="5.95842">
        <ele>955</ele>
        <time>2017-09-09T20:00:26Z</time>
      </trkpt>
      <trkpt lat="44.56443" lon="5.95859">
        <ele>950</ele>
        <time>2017-09-09T20:02:26Z</time>
      </trkpt>
      <trkpt lat="44.56383" lon="5.95864">
        <ele>945</ele>
        <time>2017-09-09T20:04:26Z</time>
      </trkpt>
      <trkpt lat="44.56349" lon="5.95885">
        <ele>944</ele>
        <time>2017-09-09T20:06:26Z</time>
      </trkpt>
      <trkpt lat="44.56278" lon="5.95904">
        <ele>942</ele>
        <time>2017-09-09T20:08:26Z</time>
      </trkpt>
      <trkpt lat="44.56213" lon="5.95911">
        <ele>941</ele>
        <time>2017-09-09T20:10:26Z</time>
      </trkpt>
      <trkpt lat="44.56141" lon="5.95896">
        <ele>943</ele>
        <time>2017-09-09T20:12:26Z</time>
      </trkpt>
      <trkpt lat="44.56148" lon="5.95788">
        <ele>940</ele>
        <time>2017-09-09T20:14:26Z</time>
      </trkpt>
      <trkpt lat="44.56126" lon="5.95758">
        <ele>940</ele>
        <time>2017-09-09T20:16:26Z</time>
      </trkpt>
      <trkpt lat="44.56077" lon="5.9572">
        <ele>939</ele>
        <time>2017-09-09T20:18:26Z</time>
      </trkpt>
      <trkpt lat="44.56074" lon="5.95647">
        <ele>936</ele>
        <time>2017-09-09T20:20:26Z</time>
      </trkpt>
      <trkpt lat="44.56016" lon="5.95591">
        <ele>935</ele>
        <time>2017-09-09T20:22:26Z</time>
      </trkpt>
      <trkpt lat="44.55946" lon="5.95561">
        <ele>934</ele>
        <time>2017-09-09T20:24:26Z</time>
      </trkpt>
      <trkpt lat="44.55926" lon="5.95516">
        <ele>933</ele>
        <time>2017-09-09T20:26:26Z</time>
      </trkpt>
      <trkpt lat="44.55816" lon="5.95415">
        <ele>932</ele>
        <time>2017-09-09T20:28:26Z</time>
      </trkpt>
      <trkpt lat="44.55723" lon="5.95381">
        <ele>931</ele>
        <time>2017-09-09T20:30:26Z</time>
      </trkpt>
      <trkpt lat="44.55732" lon="5.95366">
        <ele>931</ele>
        <time>2017-09-09T20:32:26Z</time>
      </trkpt>
      <trkpt lat="44.55723" lon="5.95336">
        <ele>931</ele>
        <time>2017-09-09T20:34:26Z</time>
      </trkpt>
      <trkpt lat="44.55675" lon="5.95299">
        <ele>931</ele>
        <time>2017-09-09T20:36:26Z</time>
      </trkpt>
      <trkpt lat="44.55591" lon="5.95243">
        <ele>930</ele>
        <time>2017-09-09T20:38:26Z</time>
      </trkpt>
      <trkpt lat="44.5552" lon="5.95188">
        <ele>928</ele>
        <time>2017-09-09T20:40:26Z</time>
      </trkpt>
      <trkpt lat="44.55484" lon="5.95074">
        <ele>928</ele>
        <time>2017-09-09T20:42:26Z</time>
      </trkpt>
      <trkpt lat="44.55455" lon="5.94964">
        <ele>927</ele>
        <time>2017-09-09T20:44:26Z</time>
      </trkpt>
      <trkpt lat="44.55437" lon="5.94859">
        <ele>925</ele>
        <time>2017-09-09T20:46:26Z</time>
      </trkpt>
    </trkseg>
  </trk>
</gpx>